createdAt,value
2019-03-03T00:00:45.150Z,8.50
2019-03-03T00:03:13.699Z,8.60
2019-03-03T00:05:42.405Z,8.60
2019-03-03T00:08:11.055Z,8.60
2019-03-03T00:10:39.985Z,8.60
2019-03-03T00:13:11.841Z,8.70
2019-03-03T00:15:40.541Z,8.70
2019-03-03T00:18:09.163Z,8.70
2019-03-03T00:20:37.839Z,8.70
2019-03-03T00:23:06.419Z,8.70
2019-03-03T00:25:36.818Z,8.70
2019-03-03T00:28:05.517Z,8.80
2019-03-03T00:30:34.714Z,8.70
2019-03-03T00:33:03.293Z,8.80
2019-03-03T00:35:31.965Z,8.80
2019-03-03T00:38:02.175Z,8.80
2019-03-03T00:40:49.013Z,8.80
2019-03-03T00:43:28.228Z,8.80
2019-03-03T00:46:01.421Z,8.90
2019-03-03T00:48:40.751Z,8.90
2019-03-03T00:51:16.690Z,8.90
2019-03-03T00:54:03.618Z,8.90
2019-03-03T00:56:36.759Z,8.90
2019-03-03T00:59:13.401Z,8.90
2019-03-03T01:01:43.917Z,8.90
2019-03-03T01:04:30.007Z,8.90
2019-03-03T01:07:00.699Z,8.90
2019-03-03T01:09:49.431Z,9.00
2019-03-03T01:12:31.683Z,9.00
2019-03-03T01:15:11.291Z,9.00
2019-03-03T01:17:56.630Z,9.00
2019-03-03T01:20:27.051Z,9.00
2019-03-03T01:22:57.294Z,9.10
2019-03-03T01:25:25.974Z,9.10
2019-03-03T01:27:54.593Z,9.10
2019-03-03T01:30:23.639Z,9.10
2019-03-03T01:32:52.332Z,9.10
2019-03-03T01:35:21.453Z,9.10
2019-03-03T01:37:50.027Z,9.10
2019-03-03T01:40:19.042Z,9.20
2019-03-03T01:42:47.605Z,9.20
2019-03-03T01:45:16.310Z,9.20
2019-03-03T01:47:45.191Z,9.20
2019-03-03T01:50:14.493Z,9.20
2019-03-03T01:52:43.667Z,9.20
2019-03-03T01:55:14.971Z,9.20
2019-03-03T01:57:43.893Z,9.20
2019-03-03T02:00:24.223Z,9.20
2019-03-03T02:02:53.968Z,9.20
2019-03-03T02:05:22.847Z,9.30
2019-03-03T02:07:51.471Z,9.30
2019-03-03T02:10:24.737Z,9.20
2019-03-03T02:12:53.599Z,9.30
2019-03-03T02:15:22.923Z,9.30
2019-03-03T02:17:51.655Z,9.30
2019-03-03T02:20:20.703Z,9.20
2019-03-03T02:22:49.326Z,9.20
2019-03-03T02:25:18.486Z,9.20
2019-03-03T02:27:47.043Z,9.20
2019-03-03T02:30:18.620Z,9.20
2019-03-03T02:32:47.820Z,9.20
2019-03-03T02:35:17.126Z,9.20
2019-03-03T02:37:46.245Z,9.20
2019-03-03T02:40:17.821Z,9.20
2019-03-03T02:42:46.448Z,9.20
2019-03-03T02:45:17.309Z,9.20
2019-03-03T02:47:46.207Z,9.20
2019-03-03T02:50:16.752Z,9.20
2019-03-03T02:52:45.792Z,9.20
2019-03-03T02:55:16.020Z,9.20
2019-03-03T02:57:44.653Z,9.20
2019-03-03T03:00:18.645Z,9.20
2019-03-03T03:02:51.774Z,9.20
2019-03-03T03:05:23.922Z,9.20
2019-03-03T03:08:00.184Z,9.20
2019-03-03T03:10:39.686Z,9.20
2019-03-03T03:13:15.783Z,9.20
2019-03-03T03:15:49.140Z,9.20
2019-03-03T03:18:28.242Z,9.20
2019-03-03T03:20:58.591Z,9.20
2019-03-03T03:23:28.788Z,9.20
2019-03-03T03:26:17.270Z,9.20
2019-03-03T03:28:47.457Z,9.20
2019-03-03T03:31:17.919Z,9.20
2019-03-03T03:33:48.103Z,9.20
2019-03-03T03:36:18.413Z,9.20
2019-03-03T03:38:48.637Z,9.20
2019-03-03T03:41:19.262Z,9.20
2019-03-03T03:43:55.212Z,9.20
2019-03-03T03:46:37.553Z,9.30
2019-03-03T03:49:10.487Z,9.20
2019-03-03T03:51:56.161Z,9.30
2019-03-03T03:54:34.838Z,9.30
2019-03-03T03:57:12.363Z,9.30
2019-03-03T03:59:42.706Z,9.30
2019-03-03T04:02:31.227Z,9.30
2019-03-03T04:05:04.000Z,9.30
2019-03-03T04:07:40.260Z,9.30
2019-03-03T04:10:16.427Z,9.30
2019-03-03T04:13:03.454Z,9.30
2019-03-03T04:15:49.794Z,9.30
2019-03-03T04:18:20.219Z,9.30
2019-03-03T04:20:53.448Z,9.30
2019-03-03T04:23:23.823Z,9.40
2019-03-03T04:25:54.006Z,9.40
2019-03-03T04:28:33.452Z,9.40
2019-03-03T04:31:21.618Z,9.40
2019-03-03T04:33:52.167Z,9.40
2019-03-03T04:36:34.622Z,9.40
2019-03-03T04:39:11.156Z,9.40
2019-03-03T04:41:47.552Z,9.40
2019-03-03T04:44:17.993Z,9.40
2019-03-03T04:46:54.375Z,9.40
2019-03-03T04:49:24.832Z,9.40
2019-03-03T04:52:03.556Z,9.50
2019-03-03T04:54:50.374Z,9.50
2019-03-03T04:57:20.570Z,9.50
2019-03-03T05:00:05.922Z,9.40
2019-03-03T05:02:36.232Z,9.50
2019-03-03T05:05:09.152Z,9.50
2019-03-03T05:07:51.847Z,9.50
2019-03-03T05:10:25.270Z,9.50
2019-03-03T05:13:06.117Z,9.50
2019-03-03T05:15:47.959Z,9.50
2019-03-03T05:18:18.282Z,9.50
2019-03-03T05:20:50.924Z,9.50
2019-03-03T05:23:19.895Z,9.60
2019-03-03T05:25:48.461Z,9.60
2019-03-03T05:28:17.126Z,9.60
2019-03-03T05:30:45.676Z,9.60
2019-03-03T05:33:14.227Z,9.60
2019-03-03T05:35:42.941Z,9.60
2019-03-03T05:38:11.503Z,9.60
2019-03-03T05:40:40.300Z,9.60
2019-03-03T05:43:09.198Z,9.60
2019-03-03T05:45:37.910Z,9.60
2019-03-03T05:48:06.460Z,9.60
2019-03-03T05:50:36.801Z,9.60
2019-03-03T05:53:05.355Z,9.60
2019-03-03T05:55:34.243Z,9.70
2019-03-03T05:58:02.811Z,9.60
2019-03-03T06:00:31.944Z,9.70
2019-03-03T06:03:00.500Z,9.60
2019-03-03T06:05:29.250Z,9.60
2019-03-03T06:07:57.811Z,9.60
2019-03-03T06:10:26.769Z,9.60
2019-03-03T06:12:55.326Z,9.70
2019-03-03T06:15:23.878Z,9.70
2019-03-03T06:17:52.555Z,9.70
2019-03-03T06:20:21.244Z,9.70
2019-03-03T06:22:49.812Z,9.70
2019-03-03T06:25:18.476Z,9.70
2019-03-03T06:27:47.032Z,9.80
2019-03-03T06:30:16.617Z,9.80
2019-03-03T06:32:45.255Z,9.80
2019-03-03T06:35:14.075Z,9.80
2019-03-03T06:37:42.944Z,9.70
2019-03-03T06:40:12.053Z,9.80
2019-03-03T06:42:40.601Z,9.80
2019-03-03T06:45:12.339Z,9.70
2019-03-03T06:47:41.120Z,9.80
2019-03-03T06:50:12.110Z,9.80
2019-03-03T06:52:40.669Z,9.80
2019-03-03T06:55:14.175Z,9.90
2019-03-03T06:57:42.800Z,9.90
2019-03-03T07:00:16.275Z,9.90
2019-03-03T07:02:45.374Z,10.00
2019-03-03T07:05:14.098Z,10.10
2019-03-03T07:07:42.937Z,10.10
2019-03-03T07:10:13.438Z,10.20
2019-03-03T07:12:42.376Z,10.30
2019-03-03T07:15:13.504Z,10.30
2019-03-03T07:17:42.057Z,10.40
2019-03-03T07:20:12.677Z,10.60
2019-03-03T07:22:41.822Z,10.70
2019-03-03T07:25:14.403Z,10.80
2019-03-03T07:27:43.277Z,10.80
2019-03-03T07:30:18.482Z,10.80
2019-03-03T07:32:48.962Z,10.90
2019-03-03T07:35:17.522Z,10.90
2019-03-03T07:37:46.316Z,10.90
2019-03-03T07:40:14.956Z,10.90
2019-03-03T07:42:43.791Z,10.90
2019-03-03T07:45:14.796Z,10.90
2019-03-03T07:47:43.613Z,11.00
2019-03-03T07:50:12.499Z,11.00
2019-03-03T07:52:41.062Z,11.00
2019-03-03T07:55:11.534Z,11.00
2019-03-03T07:57:44.420Z,11.00
2019-03-03T08:00:17.900Z,11.10
2019-03-03T08:02:46.934Z,11.10
2019-03-03T08:05:15.718Z,11.10
2019-03-03T08:07:44.300Z,11.20
2019-03-03T08:10:16.740Z,11.20
2019-03-03T08:12:45.508Z,11.30
2019-03-03T08:15:19.427Z,11.30
2019-03-03T08:17:48.048Z,11.30
2019-03-03T08:20:17.031Z,11.40
2019-03-03T08:22:45.600Z,11.40
2019-03-03T08:25:15.026Z,11.40
2019-03-03T08:27:44.023Z,11.40
2019-03-03T08:30:20.229Z,11.50
2019-03-03T08:32:48.777Z,11.60
2019-03-03T08:35:23.461Z,11.60
2019-03-03T08:37:52.078Z,11.70
2019-03-03T08:40:21.038Z,11.90
2019-03-03T08:43:09.199Z,12.00
2019-03-03T08:45:56.132Z,12.10
2019-03-03T08:48:29.070Z,12.20
2019-03-03T08:51:04.967Z,12.30
2019-03-03T08:53:51.712Z,12.40
2019-03-03T08:56:22.040Z,12.50
2019-03-03T08:59:07.570Z,12.50
2019-03-03T09:01:50.058Z,12.60
2019-03-03T09:04:23.192Z,12.70
2019-03-03T09:06:53.512Z,12.70
2019-03-03T09:09:23.776Z,12.80
2019-03-03T09:12:06.308Z,12.80
2019-03-03T09:14:42.462Z,12.80
2019-03-03T09:17:19.223Z,12.70
2019-03-03T09:19:52.302Z,12.70
2019-03-03T09:22:38.379Z,12.60
2019-03-03T09:25:22.068Z,12.50
2019-03-03T09:27:58.598Z,12.50
2019-03-03T09:30:34.534Z,12.40
2019-03-03T09:33:05.216Z,12.40
2019-03-03T09:35:35.430Z,12.30
2019-03-03T09:38:11.684Z,12.40
2019-03-03T09:40:47.686Z,12.40
2019-03-03T09:43:18.021Z,12.40
2019-03-03T09:45:54.056Z,12.50
2019-03-03T09:48:24.812Z,12.50
2019-03-03T09:51:00.829Z,12.60
2019-03-03T09:53:39.980Z,12.60
2019-03-03T09:56:10.194Z,12.70
2019-03-03T09:58:56.662Z,12.70
2019-03-03T10:01:29.692Z,12.70
2019-03-03T10:04:03.185Z,12.80
2019-03-03T10:06:52.647Z,12.90
2019-03-03T10:09:25.672Z,13.00
2019-03-03T10:11:55.948Z,13.10
2019-03-03T10:14:35.604Z,13.10
2019-03-03T10:17:12.665Z,13.20
2019-03-03T10:19:46.080Z,13.20
2019-03-03T10:22:21.894Z,13.20
2019-03-03T10:24:55.218Z,13.30
2019-03-03T10:27:25.410Z,13.40
2019-03-03T10:29:55.600Z,13.40
2019-03-03T10:32:25.924Z,13.50
2019-03-03T10:35:12.412Z,13.60
2019-03-03T10:37:46.434Z,13.70
2019-03-03T10:40:28.798Z,13.80
2019-03-03T10:43:07.776Z,13.90
2019-03-03T10:45:46.642Z,13.80
2019-03-03T10:48:22.505Z,13.80
2019-03-03T10:50:52.954Z,13.70
2019-03-03T10:53:25.906Z,13.60
2019-03-03T10:55:56.774Z,13.50
2019-03-03T10:58:35.928Z,13.50
2019-03-03T11:01:06.628Z,13.40
2019-03-03T11:03:39.606Z,13.30
2019-03-03T11:06:12.598Z,13.30
2019-03-03T11:08:48.629Z,13.40
2019-03-03T11:11:19.884Z,13.40
2019-03-03T11:13:57.341Z,13.50
2019-03-03T11:16:37.057Z,13.60
2019-03-03T11:19:07.437Z,13.70
2019-03-03T11:21:40.351Z,13.70
2019-03-03T11:24:10.894Z,13.80
2019-03-03T11:26:49.894Z,13.90
2019-03-03T11:29:29.166Z,14.00
2019-03-03T11:32:02.244Z,14.10
2019-03-03T11:34:38.554Z,14.20
2019-03-03T11:37:14.887Z,14.20
2019-03-03T11:40:02.063Z,14.20
2019-03-03T11:42:35.617Z,14.30
2019-03-03T11:45:13.368Z,14.40
2019-03-03T11:48:04.113Z,14.60
2019-03-03T11:50:47.047Z,14.90
2019-03-03T11:53:17.623Z,15.00
2019-03-03T11:55:48.222Z,14.90
2019-03-03T11:58:30.847Z,15.00
2019-03-03T12:01:04.191Z,14.90
2019-03-03T12:03:46.390Z,15.00
2019-03-03T12:06:26.039Z,15.00
2019-03-03T12:09:11.207Z,15.00
2019-03-03T12:11:44.378Z,15.00
2019-03-03T12:14:15.129Z,14.90
2019-03-03T12:17:00.339Z,14.80
2019-03-03T12:19:36.701Z,14.80
2019-03-03T12:22:08.851Z,14.80
2019-03-03T12:24:57.464Z,14.80
2019-03-03T12:27:27.671Z,14.90
2019-03-03T12:30:09.710Z,15.00
2019-03-03T12:32:39.995Z,14.90
2019-03-03T12:35:10.771Z,14.80
2019-03-03T12:37:53.326Z,14.80
2019-03-03T12:40:32.435Z,14.70
2019-03-03T12:43:05.133Z,14.50
2019-03-03T12:45:53.835Z,14.40
2019-03-03T12:48:36.219Z,14.40
2019-03-03T12:51:22.417Z,14.40
2019-03-03T12:53:55.907Z,14.40
2019-03-03T12:56:38.403Z,14.40
2019-03-03T12:59:14.552Z,14.40
2019-03-03T13:01:47.255Z,14.40
2019-03-03T13:04:23.423Z,14.40
2019-03-03T13:07:03.080Z,14.50
2019-03-03T13:09:39.082Z,14.60
2019-03-03T13:12:20.958Z,14.60
2019-03-03T13:14:53.684Z,14.80
2019-03-03T13:17:47.981Z,14.70
2019-03-03T13:20:20.096Z,14.70
2019-03-03T13:22:55.799Z,14.70
2019-03-03T13:25:26.270Z,14.80
2019-03-03T13:28:12.359Z,14.90
2019-03-03T13:30:59.275Z,14.90
2019-03-03T13:33:35.616Z,14.90
2019-03-03T13:36:13.031Z,14.90
2019-03-03T13:38:46.053Z,14.80
2019-03-03T13:41:34.774Z,14.80
2019-03-03T13:44:03.748Z,14.80
2019-03-03T13:46:32.401Z,14.80
2019-03-03T13:49:01.102Z,14.80
2019-03-03T13:51:30.338Z,14.80
2019-03-03T13:53:58.979Z,14.70
2019-03-03T13:56:27.739Z,14.70
2019-03-03T13:58:57.139Z,14.70
2019-03-03T14:01:26.306Z,14.60
2019-03-03T14:03:55.321Z,14.60
2019-03-03T14:06:25.703Z,14.60
2019-03-03T14:08:54.807Z,14.60
2019-03-03T14:11:29.913Z,14.60
2019-03-03T14:13:59.071Z,14.60
2019-03-03T14:16:29.137Z,14.60
2019-03-03T14:18:57.959Z,14.60
2019-03-03T14:21:27.052Z,14.50
2019-03-03T14:23:55.619Z,14.50
2019-03-03T14:26:24.580Z,14.50
2019-03-03T14:28:55.264Z,14.50
2019-03-03T14:31:23.855Z,14.50
2019-03-03T14:33:52.425Z,14.40
2019-03-03T14:36:21.429Z,14.30
2019-03-03T14:38:49.996Z,14.30
2019-03-03T14:41:20.239Z,14.20
2019-03-03T14:43:48.817Z,14.10
2019-03-03T14:46:18.000Z,14.10
2019-03-03T14:48:46.887Z,14.00
2019-03-03T14:51:16.590Z,14.00
2019-03-03T14:53:45.295Z,13.90
2019-03-03T14:56:14.003Z,13.90
2019-03-03T14:58:43.700Z,13.90
2019-03-03T15:01:12.333Z,13.80
2019-03-03T15:03:40.981Z,13.80
2019-03-03T15:06:09.957Z,13.70
2019-03-03T15:08:38.814Z,13.70
2019-03-03T15:11:07.746Z,13.80
2019-03-03T15:13:36.315Z,13.70
2019-03-03T15:16:05.315Z,13.80
2019-03-03T15:18:34.013Z,13.70
2019-03-03T15:21:02.790Z,13.70
2019-03-03T15:23:34.299Z,13.70
2019-03-03T15:26:03.342Z,13.70
2019-03-03T15:28:31.921Z,13.70
2019-03-03T15:31:00.771Z,13.70
2019-03-03T15:33:29.385Z,13.60
2019-03-03T15:35:58.113Z,13.60
2019-03-03T15:38:26.677Z,13.60
2019-03-03T15:40:55.450Z,13.60
2019-03-03T15:43:24.074Z,13.50
2019-03-03T15:45:52.786Z,13.50
2019-03-03T15:48:21.371Z,13.50
2019-03-03T15:50:50.509Z,13.50
2019-03-03T15:53:19.098Z,13.40
2019-03-03T15:55:48.253Z,13.40
2019-03-03T15:58:16.806Z,13.30
2019-03-03T16:00:45.749Z,13.30
2019-03-03T16:03:14.394Z,13.30
2019-03-03T16:05:43.079Z,13.30
2019-03-03T16:08:11.715Z,13.30
2019-03-03T16:10:40.703Z,13.20
2019-03-03T16:13:09.343Z,13.20
2019-03-03T16:15:38.054Z,13.20
2019-03-03T16:18:06.692Z,13.20
2019-03-03T16:20:35.377Z,13.20
2019-03-03T16:23:03.993Z,13.10
2019-03-03T16:25:33.005Z,13.10
2019-03-03T16:28:01.648Z,13.10
2019-03-03T16:30:30.286Z,13.10
2019-03-03T16:32:59.017Z,13.00
2019-03-03T16:35:27.789Z,13.00
2019-03-03T16:37:56.357Z,13.00
2019-03-03T16:40:26.529Z,13.00
2019-03-03T16:42:55.234Z,13.00
2019-03-03T16:45:24.159Z,13.00
2019-03-03T16:47:52.805Z,12.90
2019-03-03T16:50:23.163Z,12.90
2019-03-03T16:52:52.069Z,12.90
2019-03-03T16:55:21.571Z,12.90
2019-03-03T16:57:51.058Z,12.90
2019-03-03T17:00:27.743Z,12.90
2019-03-03T17:02:56.383Z,12.90
2019-03-03T17:05:29.482Z,12.90
2019-03-03T17:07:58.262Z,12.90
2019-03-03T17:10:26.827Z,12.90
2019-03-03T17:12:55.875Z,12.80
2019-03-03T17:15:26.007Z,12.80
2019-03-03T17:17:54.831Z,12.80
2019-03-03T17:20:23.531Z,12.70
2019-03-03T17:22:52.350Z,12.70
2019-03-03T17:25:27.911Z,12.60
2019-03-03T17:27:57.005Z,12.50
2019-03-03T17:30:27.872Z,12.50
2019-03-03T17:32:56.883Z,12.30
2019-03-03T17:35:25.448Z,12.20
2019-03-03T17:37:56.396Z,12.20
2019-03-03T17:40:28.626Z,12.20
2019-03-03T17:42:57.919Z,12.10
2019-03-03T17:45:26.595Z,12.10
2019-03-03T17:47:55.307Z,12.00
2019-03-03T17:50:28.635Z,12.00
2019-03-03T17:52:58.600Z,12.00
2019-03-03T17:55:27.299Z,12.00
2019-03-03T17:57:57.402Z,12.00
2019-03-03T18:00:28.952Z,11.90
2019-03-03T18:02:57.883Z,11.90
2019-03-03T18:05:26.492Z,11.90
2019-03-03T18:07:55.476Z,11.90
2019-03-03T18:10:24.271Z,11.90
2019-03-03T18:12:53.142Z,11.90
2019-03-03T18:15:21.806Z,11.80
2019-03-03T18:17:50.772Z,11.80
2019-03-03T18:20:21.561Z,11.80
2019-03-03T18:22:50.413Z,11.80
2019-03-03T18:25:22.115Z,11.70
2019-03-03T18:27:51.075Z,11.70
2019-03-03T18:30:28.911Z,11.70
2019-03-03T18:32:57.703Z,11.70
2019-03-03T18:35:26.471Z,11.70
2019-03-03T18:37:55.891Z,11.70
2019-03-03T18:40:25.729Z,11.70
2019-03-03T18:42:54.848Z,11.60
2019-03-03T18:45:24.179Z,11.60
2019-03-03T18:47:52.823Z,11.60
2019-03-03T18:50:23.856Z,11.60
2019-03-03T18:52:53.021Z,11.70
2019-03-03T18:55:21.593Z,11.60
2019-03-03T18:57:50.856Z,11.60
2019-03-03T19:00:22.748Z,11.60
2019-03-03T19:02:52.144Z,11.70
2019-03-03T19:05:21.194Z,11.70
2019-03-03T19:07:50.008Z,11.70
2019-03-03T19:10:30.105Z,11.70
2019-03-03T19:12:58.873Z,11.60
2019-03-03T19:15:27.834Z,11.70
2019-03-03T19:17:59.900Z,11.70
2019-03-03T19:20:28.707Z,11.70
2019-03-03T19:22:57.795Z,11.70
2019-03-03T19:25:26.874Z,11.70
2019-03-03T19:27:55.539Z,11.70
2019-03-03T19:30:28.751Z,11.70
2019-03-03T19:33:15.570Z,11.70
2019-03-03T19:35:44.326Z,11.70
2019-03-03T19:38:13.163Z,11.80
2019-03-03T19:40:41.949Z,11.80
2019-03-03T19:43:10.502Z,11.80
2019-03-03T19:45:41.554Z,11.80
2019-03-03T19:48:10.932Z,11.80
2019-03-03T19:50:40.690Z,11.80
2019-03-03T19:53:09.401Z,11.80
2019-03-03T19:55:38.220Z,11.80
2019-03-03T19:58:06.991Z,11.90
2019-03-03T20:00:39.141Z,11.90
2019-03-03T20:03:08.491Z,11.90
2019-03-03T20:05:37.166Z,11.90
2019-03-03T20:08:06.382Z,11.90
2019-03-03T20:10:35.592Z,11.90
2019-03-03T20:13:04.561Z,12.00
2019-03-03T20:15:33.887Z,12.00
2019-03-03T20:18:03.025Z,12.00
2019-03-03T20:20:31.763Z,12.00
2019-03-03T20:23:00.505Z,12.00
2019-03-03T20:25:29.599Z,12.00
2019-03-03T20:27:58.224Z,12.00
2019-03-03T20:30:26.922Z,11.90
2019-03-03T20:32:55.676Z,12.00
2019-03-03T20:35:25.042Z,11.90
2019-03-03T20:37:53.674Z,11.90
2019-03-03T20:40:24.085Z,11.90
2019-03-03T20:42:53.818Z,11.90
2019-03-03T20:45:27.187Z,11.90
2019-03-03T20:47:56.105Z,11.90
2019-03-03T20:50:25.225Z,11.90
2019-03-03T20:52:54.921Z,11.90
2019-03-03T20:55:28.181Z,11.90
2019-03-03T20:57:56.985Z,11.90
2019-03-03T21:00:27.956Z,11.90
2019-03-03T21:02:57.414Z,11.80
2019-03-03T21:05:26.107Z,11.90
2019-03-03T21:07:55.023Z,11.80
2019-03-03T21:10:27.914Z,11.90
2019-03-03T21:12:56.904Z,11.80
2019-03-03T21:15:25.469Z,11.80
2019-03-03T21:17:54.244Z,11.80
2019-03-03T21:20:23.942Z,11.80
2019-03-03T21:22:52.774Z,11.80
2019-03-03T21:25:21.477Z,11.80
2019-03-03T21:27:50.423Z,11.80
2019-03-03T21:30:21.797Z,11.80
2019-03-03T21:32:51.095Z,11.80
2019-03-03T21:35:19.932Z,11.80
2019-03-03T21:37:49.107Z,11.80
2019-03-03T21:40:22.919Z,11.70
2019-03-03T21:42:51.570Z,11.80
2019-03-03T21:45:25.994Z,11.70
2019-03-03T21:47:55.501Z,11.70
2019-03-03T21:50:26.615Z,11.70
2019-03-03T21:52:55.807Z,11.70
2019-03-03T21:55:24.855Z,11.70
2019-03-03T21:57:53.505Z,11.70
2019-03-03T22:00:31.013Z,11.70
2019-03-03T22:02:59.571Z,11.70
2019-03-03T22:05:28.433Z,11.70
2019-03-03T22:07:57.278Z,11.70
2019-03-03T22:10:34.974Z,11.70
2019-03-03T22:13:05.868Z,11.80
2019-03-03T22:15:36.035Z,11.70
2019-03-03T22:18:06.685Z,11.80
2019-03-03T22:20:35.387Z,11.80
2019-03-03T22:23:04.075Z,11.80
2019-03-03T22:25:33.025Z,11.80
2019-03-03T22:28:01.574Z,11.80
2019-03-03T22:30:30.606Z,11.80
2019-03-03T22:32:59.243Z,11.80
2019-03-03T22:35:27.930Z,11.80
2019-03-03T22:37:56.554Z,11.80
2019-03-03T22:40:25.777Z,11.80
2019-03-03T22:42:54.371Z,11.80
2019-03-03T22:45:23.347Z,11.80
2019-03-03T22:47:52.075Z,11.80
2019-03-03T22:50:21.508Z,11.80
2019-03-03T22:52:50.818Z,11.80
2019-03-03T22:55:20.729Z,11.80
2019-03-03T22:57:49.413Z,11.80
2019-03-03T23:00:43.495Z,11.90
2019-03-03T23:03:14.413Z,11.80
2019-03-03T23:05:58.312Z,11.80
2019-03-03T23:08:36.189Z,11.90
2019-03-03T23:11:10.760Z,11.90
2019-03-03T23:13:51.786Z,11.90
2019-03-03T23:16:38.461Z,11.90
2019-03-03T23:19:15.771Z,11.90
2019-03-03T23:21:47.530Z,11.90
2019-03-03T23:24:46.647Z,11.90
2019-03-03T23:27:15.384Z,11.90
2019-03-03T23:29:44.009Z,11.90
2019-03-03T23:32:12.995Z,11.80
2019-03-03T23:34:41.565Z,11.80
2019-03-03T23:37:10.230Z,11.80
2019-03-03T23:39:38.797Z,11.80
2019-03-03T23:42:07.757Z,11.80
2019-03-03T23:44:36.299Z,11.80
2019-03-03T23:47:04.937Z,11.80
2019-03-03T23:49:34.003Z,11.70
2019-03-03T23:52:02.943Z,11.70
2019-03-03T23:54:31.613Z,11.70
2019-03-03T23:57:00.192Z,11.70
2019-03-03T23:59:28.859Z,11.70
